Terminal Aerodrome Forecast
Issued by NWS

Home | Current Version | Previous Version | Text Only | Print | Product List | Glossary Off
Versions: 1 2 3 4 5 6 7 8 9 10 11 12 13 14

000
FTUS45 KGGW 121813 RRA
TAFSDY
TAF
KSDY 121813Z 1218/1318 24011KT P6SM FEW130
     FM130000 28016KT P6SM FEW210 WS020/30045KT
     FM130400 30019G28KT P6SM BKN130
     FM131200 31017KT P6SM FEW035=

USA.gov is the U.S. government's official web portal to all federal, state and local government web resources and services.